createdAt,value
2018-11-28T00:00:28.048Z,2.73
2018-11-28T00:01:27.777Z,2.7
2018-11-28T00:02:27.780Z,2.63
2018-11-28T00:03:28.123Z,2.6
2018-11-28T00:04:28.041Z,2.54
2018-11-28T00:05:28.004Z,2.55
2018-11-28T00:06:27.994Z,2.55
2018-11-28T00:07:27.754Z,2.53
2018-11-28T00:08:27.853Z,2.53
2018-11-28T00:09:28.113Z,2.52
2018-11-28T00:10:27.733Z,2.57
2018-11-28T00:11:27.754Z,2.6
2018-11-28T00:12:27.766Z,2.61
2018-11-28T00:13:27.866Z,2.54
2018-11-28T00:14:27.810Z,2.53
2018-11-28T00:15:27.819Z,2.56
2018-11-28T00:16:27.840Z,2.59
2018-11-28T00:17:27.776Z,2.58
2018-11-28T00:18:27.783Z,2.63
2018-11-28T00:19:27.732Z,2.58
2018-11-28T00:20:28.011Z,2.52
2018-11-28T00:21:27.877Z,2.46
2018-11-28T00:22:27.735Z,2.42
2018-11-28T00:23:27.817Z,2.47
2018-11-28T00:24:27.724Z,2.49
2018-11-28T00:25:27.717Z,2.52
2018-11-28T00:26:27.914Z,2.54
2018-11-28T00:27:27.730Z,2.59
2018-11-28T00:28:27.753Z,2.59
2018-11-28T00:29:27.732Z,2.62
2018-11-28T00:30:27.830Z,2.55
2018-11-28T00:31:27.725Z,2.57
2018-11-28T00:32:27.719Z,2.58
2018-11-28T00:33:27.705Z,2.61
2018-11-28T00:34:27.712Z,2.55
2018-11-28T00:35:27.695Z,2.52
2018-11-28T00:36:27.724Z,2.49
2018-11-28T00:37:27.709Z,2.51
2018-11-28T00:38:27.761Z,2.5
2018-11-28T00:39:27.816Z,2.47
2018-11-28T00:40:27.704Z,2.44
2018-11-28T00:41:27.771Z,2.48
2018-11-28T00:42:27.819Z,2.5
2018-11-28T00:43:27.776Z,2.47
2018-11-28T00:44:27.772Z,2.48
2018-11-28T00:45:27.721Z,2.47
2018-11-28T00:46:27.729Z,2.45
2018-11-28T00:47:27.736Z,2.5
2018-11-28T00:48:27.759Z,2.48
2018-11-28T00:49:27.764Z,2.48
2018-11-28T00:50:27.814Z,2.49
2018-11-28T00:51:27.939Z,2.51
2018-11-28T00:52:27.735Z,2.51
2018-11-28T00:53:27.792Z,2.52
2018-11-28T00:54:28.060Z,2.51
2018-11-28T00:55:27.858Z,2.51
2018-11-28T00:56:27.763Z,2.51
2018-11-28T00:57:27.736Z,2.49
2018-11-28T00:58:27.842Z,2.48
2018-11-28T00:59:28.059Z,2.47
2018-11-28T01:00:27.718Z,2.5
2018-11-28T01:01:27.795Z,2.49
2018-11-28T01:02:27.757Z,2.48
2018-11-28T01:03:28.047Z,2.46
2018-11-28T01:04:27.985Z,2.5
2018-11-28T01:05:27.721Z,2.52
2018-11-28T01:06:28.018Z,2.5
2018-11-28T01:07:27.714Z,2.48
2018-11-28T01:08:27.730Z,2.49
2018-11-28T01:09:27.643Z,2.5
2018-11-28T01:10:27.704Z,2.49
2018-11-28T01:11:27.673Z,2.48
2018-11-28T01:12:27.649Z,2.51
2018-11-28T01:13:28.527Z,2.49
2018-11-28T01:14:27.708Z,2.48
2018-11-28T01:15:27.689Z,2.46
2018-11-28T01:16:27.695Z,2.42
2018-11-28T01:17:27.802Z,2.44
2018-11-28T01:18:27.692Z,2.43
2018-11-28T01:19:27.683Z,2.46
2018-11-28T01:20:27.897Z,2.41
2018-11-28T01:21:28.207Z,2.41
2018-11-28T01:22:27.854Z,2.38
2018-11-28T01:23:27.657Z,2.41
2018-11-28T01:24:28.161Z,2.41
2018-11-28T01:25:27.742Z,2.43
2018-11-28T01:26:27.920Z,2.41
2018-11-28T01:27:27.655Z,2.41
2018-11-28T01:28:28.024Z,2.4
2018-11-28T01:29:27.703Z,2.39
2018-11-28T01:30:27.844Z,2.39
2018-11-28T01:31:27.832Z,2.37
2018-11-28T01:32:27.653Z,2.36
2018-11-28T01:33:27.781Z,2.33
2018-11-28T01:34:27.628Z,2.37
2018-11-28T01:35:27.638Z,2.35
2018-11-28T01:36:27.782Z,2.36
2018-11-28T01:37:27.638Z,2.32
2018-11-28T01:38:27.710Z,2.32
2018-11-28T01:39:27.658Z,2.3
2018-11-28T01:40:27.762Z,2.2
2018-11-28T01:41:27.783Z,2.26
2018-11-28T01:42:27.775Z,2.17
2018-11-28T01:43:27.614Z,2.18
2018-11-28T01:44:27.852Z,2.22
2018-11-28T01:45:27.799Z,2.23
2018-11-28T01:46:27.707Z,2.25
2018-11-28T01:47:27.696Z,2.21
2018-11-28T01:48:27.841Z,2.2
2018-11-28T01:49:27.680Z,2.19
2018-11-28T01:50:27.834Z,2.21
2018-11-28T01:51:27.621Z,2.19
2018-11-28T01:52:27.624Z,2.18
2018-11-28T01:53:27.821Z,2.21
2018-11-28T01:54:27.641Z,2.18
2018-11-28T01:55:27.808Z,2.16
2018-11-28T01:56:27.800Z,2.16
2018-11-28T01:57:27.652Z,2.1
2018-11-28T01:58:27.584Z,2.12
2018-11-28T01:59:27.617Z,2.11
2018-11-28T02:00:27.584Z,2.14
2018-11-28T02:01:27.606Z,2.09
2018-11-28T02:02:27.628Z,2.08
2018-11-28T02:03:27.603Z,2.07
2018-11-28T02:04:27.597Z,2.11
2018-11-28T02:05:27.610Z,2.08
2018-11-28T02:06:27.609Z,2.05
2018-11-28T02:07:27.612Z,2.06
2018-11-28T02:08:27.651Z,2.06
2018-11-28T02:09:27.631Z,2.03
2018-11-28T02:10:27.590Z,2.06
2018-11-28T02:11:27.626Z,2.03
2018-11-28T02:12:27.622Z,2.03
2018-11-28T02:13:27.627Z,1.97
2018-11-28T02:14:27.566Z,1.98
2018-11-28T02:15:27.573Z,2.01
2018-11-28T02:16:27.571Z,1.96
2018-11-28T02:17:27.587Z,1.97
2018-11-28T02:18:27.608Z,1.97
2018-11-28T02:19:27.567Z,1.95
2018-11-28T02:20:27.683Z,1.94
2018-11-28T02:21:27.568Z,1.97
2018-11-28T02:22:27.604Z,1.96
2018-11-28T02:23:27.525Z,1.98
2018-11-28T02:24:27.705Z,1.96
2018-11-28T02:25:27.613Z,1.96
2018-11-28T02:26:27.618Z,1.97
2018-11-28T02:27:27.567Z,1.97
2018-11-28T02:28:27.612Z,1.94
2018-11-28T02:29:27.737Z,1.89
2018-11-28T02:30:27.642Z,1.87
2018-11-28T02:31:27.718Z,1.79
2018-11-28T02:32:27.550Z,1.78
2018-11-28T02:33:28.276Z,1.78
2018-11-28T02:34:27.589Z,1.82
2018-11-28T02:35:27.769Z,1.8
2018-11-28T02:36:27.654Z,1.83
2018-11-28T02:37:27.573Z,1.77
2018-11-28T02:38:27.565Z,1.83
2018-11-28T02:39:27.727Z,1.84
2018-11-28T02:40:27.764Z,1.84
2018-11-28T02:41:27.552Z,1.83
2018-11-28T02:42:27.577Z,1.83
2018-11-28T02:43:27.740Z,1.82
2018-11-28T02:44:27.582Z,1.81
2018-11-28T02:45:27.785Z,1.81
2018-11-28T02:46:27.535Z,1.8
2018-11-28T02:47:27.564Z,1.81
2018-11-28T02:48:27.571Z,1.82
2018-11-28T02:49:27.636Z,1.8
2018-11-28T02:50:27.703Z,1.73
2018-11-28T02:51:27.650Z,1.75
2018-11-28T02:52:27.756Z,1.8
2018-11-28T02:53:27.725Z,1.74
2018-11-28T02:54:27.792Z,1.73
2018-11-28T02:55:27.809Z,1.74
2018-11-28T02:56:27.789Z,1.7
2018-11-28T02:57:27.517Z,1.77
2018-11-28T02:58:27.545Z,1.7
2018-11-28T02:59:27.520Z,1.69
2018-11-28T03:00:27.725Z,1.7
2018-11-28T03:01:27.625Z,1.62
2018-11-28T03:02:27.654Z,1.58
2018-11-28T03:03:27.886Z,1.67
2018-11-28T03:04:27.521Z,1.69
2018-11-28T03:05:27.540Z,1.68
2018-11-28T03:06:27.551Z,1.67
2018-11-28T03:07:27.679Z,1.63
2018-11-28T03:08:27.554Z,1.62
2018-11-28T03:09:27.621Z,1.56
2018-11-28T03:10:27.512Z,1.67
2018-11-28T03:11:27.502Z,1.67
2018-11-28T03:12:27.697Z,1.59
2018-11-28T03:13:27.699Z,1.55
2018-11-28T03:14:27.478Z,1.54
2018-11-28T03:15:27.694Z,1.6
2018-11-28T03:16:27.553Z,1.56
2018-11-28T03:17:27.508Z,1.5
2018-11-28T03:18:27.583Z,1.52
2018-11-28T03:19:27.668Z,1.55
2018-11-28T03:20:27.586Z,1.53
2018-11-28T03:21:27.539Z,1.53
2018-11-28T03:22:27.624Z,1.54
2018-11-28T03:23:27.556Z,1.57
2018-11-28T03:24:27.479Z,1.53
2018-11-28T03:25:27.673Z,1.47
2018-11-28T03:26:27.577Z,1.48
2018-11-28T03:27:27.870Z,1.5
2018-11-28T03:28:27.562Z,1.51
2018-11-28T03:29:27.616Z,1.55
2018-11-28T03:30:27.812Z,1.53
2018-11-28T03:31:27.545Z,1.58
2018-11-28T03:32:27.599Z,1.55
2018-11-28T03:33:27.622Z,1.53
2018-11-28T03:34:28.038Z,1.57
2018-11-28T03:35:27.680Z,1.58
2018-11-28T03:36:27.548Z,1.53
2018-11-28T03:37:27.495Z,1.46
2018-11-28T03:38:27.575Z,1.49
2018-11-28T03:39:27.574Z,1.43
2018-11-28T03:40:27.526Z,1.43
2018-11-28T03:41:27.491Z,1.39
2018-11-28T03:42:27.535Z,1.47
2018-11-28T03:43:27.475Z,1.48
2018-11-28T03:44:27.967Z,1.46
2018-11-28T03:45:27.489Z,1.41
2018-11-28T03:46:27.485Z,1.46
2018-11-28T03:47:27.483Z,1.48
2018-11-28T03:48:27.487Z,1.52
2018-11-28T03:49:27.504Z,1.47
2018-11-28T03:50:27.496Z,1.51
2018-11-28T03:51:27.540Z,1.5
2018-11-28T03:52:27.499Z,1.49
2018-11-28T03:53:27.486Z,1.5
2018-11-28T03:54:27.482Z,1.42
2018-11-28T03:55:27.512Z,1.44
2018-11-28T03:56:27.462Z,1.42
2018-11-28T03:57:27.479Z,1.44
2018-11-28T03:58:27.478Z,1.44
2018-11-28T03:59:27.545Z,1.4
2018-11-28T04:00:27.517Z,1.37
2018-11-28T04:01:27.704Z,1.42
2018-11-28T04:02:27.592Z,1.36
2018-11-28T04:03:27.509Z,1.44
2018-11-28T04:04:27.570Z,1.46
2018-11-28T04:05:27.475Z,1.45
2018-11-28T04:06:27.496Z,1.46
2018-11-28T04:07:27.532Z,1.47
2018-11-28T04:08:27.447Z,1.48
2018-11-28T04:09:27.649Z,1.47
2018-11-28T04:10:27.540Z,1.49
2018-11-28T04:11:28.186Z,1.47
2018-11-28T04:12:27.701Z,1.44
2018-11-28T04:13:27.538Z,1.48
2018-11-28T04:14:27.507Z,1.45
2018-11-28T04:15:27.592Z,1.46
2018-11-28T04:16:27.444Z,1.39
2018-11-28T04:17:27.450Z,1.42
2018-11-28T04:18:27.749Z,1.42
2018-11-28T04:19:27.493Z,1.34
2018-11-28T04:20:27.548Z,1.41
2018-11-28T04:21:27.608Z,1.38
2018-11-28T04:22:27.431Z,1.36
2018-11-28T04:23:27.645Z,1.37
2018-11-28T04:24:27.806Z,1.37
2018-11-28T04:25:27.607Z,1.34
2018-11-28T04:26:27.409Z,1.36
2018-11-28T04:27:27.535Z,1.39
2018-11-28T04:28:27.490Z,1.38
2018-11-28T04:29:27.534Z,1.4
2018-11-28T04:30:27.453Z,1.33
2018-11-28T04:31:27.634Z,1.27
2018-11-28T04:32:27.436Z,1.19
2018-11-28T04:33:27.446Z,1.28
2018-11-28T04:34:27.514Z,1.2
2018-11-28T04:35:27.949Z,1.18
2018-11-28T04:36:27.629Z,1.28
2018-11-28T04:37:27.403Z,1.27
2018-11-28T04:38:27.550Z,1.28
2018-11-28T04:39:27.556Z,1.3
2018-11-28T04:40:27.668Z,1.32
2018-11-28T04:41:27.396Z,1.3
2018-11-28T04:42:27.559Z,1.25
2018-11-28T04:43:27.529Z,1.21
2018-11-28T04:44:27.659Z,1.18
2018-11-28T04:45:27.606Z,1.19
2018-11-28T04:46:27.445Z,1.25
2018-11-28T04:47:27.410Z,1.23
2018-11-28T04:48:27.440Z,1.25
2018-11-28T04:49:27.391Z,1.24
2018-11-28T04:50:27.443Z,1.28
2018-11-28T04:51:27.466Z,1.27
2018-11-28T04:52:27.443Z,1.28
2018-11-28T04:53:27.535Z,1.22
2018-11-28T04:54:27.467Z,1.27
2018-11-28T04:55:27.387Z,1.27
2018-11-28T04:56:27.389Z,1.34
2018-11-28T04:57:27.494Z,1.34
2018-11-28T04:58:27.508Z,1.36
2018-11-28T04:59:27.515Z,1.34
2018-11-28T05:00:27.486Z,1.37
2018-11-28T05:01:27.587Z,1.39
2018-11-28T05:02:27.552Z,1.42
2018-11-28T05:03:27.372Z,1.39
2018-11-28T05:04:27.568Z,1.4
2018-11-28T05:05:27.393Z,1.37
2018-11-28T05:06:27.517Z,1.42
2018-11-28T05:07:27.517Z,1.42
2018-11-28T05:08:27.601Z,1.37
2018-11-28T05:09:27.618Z,1.35
2018-11-28T05:10:27.492Z,1.39
2018-11-28T05:11:28.230Z,1.45
2018-11-28T05:12:27.503Z,1.45
2018-11-28T05:13:27.444Z,1.59
2018-11-28T05:14:27.623Z,1.42
2018-11-28T05:15:27.422Z,1.41
2018-11-28T05:16:27.527Z,1.36
2018-11-28T05:17:27.496Z,1.39
2018-11-28T05:18:27.361Z,1.39
2018-11-28T05:19:27.353Z,1.4
2018-11-28T05:20:27.451Z,1.42
2018-11-28T05:21:27.401Z,1.47
2018-11-28T05:22:27.373Z,1.42
2018-11-28T05:23:27.330Z,1.4
2018-11-28T05:24:27.300Z,1.36
2018-11-28T05:25:28.416Z,1.41
2018-11-28T05:26:27.301Z,1.38
2018-11-28T05:27:27.461Z,1.35
2018-11-28T05:28:27.340Z,1.4
2018-11-28T05:29:27.321Z,1.36
2018-11-28T05:30:27.359Z,1.32
2018-11-28T05:31:27.366Z,1.47
2018-11-28T05:32:27.365Z,1.36
2018-11-28T05:33:27.348Z,1.35
2018-11-28T05:34:27.303Z,1.38
2018-11-28T05:35:27.378Z,1.43
2018-11-28T05:36:28.534Z,1.49
2018-11-28T05:37:27.387Z,1.37
2018-11-28T05:38:27.332Z,1.41
2018-11-28T05:39:27.373Z,1.41
2018-11-28T05:40:27.728Z,1.36
2018-11-28T05:41:29.746Z,1.38
2018-11-28T05:42:27.623Z,1.33
2018-11-28T05:43:27.357Z,1.27
2018-11-28T05:44:27.409Z,1.37
2018-11-28T05:45:27.841Z,1.31
2018-11-28T05:46:27.446Z,1.39
2018-11-28T05:47:27.263Z,1.37
2018-11-28T05:48:27.505Z,1.32
2018-11-28T05:49:27.348Z,1.29
2018-11-28T05:50:27.577Z,1.37
2018-11-28T05:51:27.297Z,1.35
2018-11-28T05:52:27.426Z,1.38
2018-11-28T05:53:27.476Z,1.37
2018-11-28T05:54:27.419Z,1.35
2018-11-28T05:55:27.490Z,1.33
2018-11-28T05:56:27.517Z,1.33
2018-11-28T05:57:27.319Z,1.35
2018-11-28T05:58:27.375Z,1.3
2018-11-28T05:59:27.844Z,1.33
2018-11-28T06:00:28.139Z,1.29
2018-11-28T06:01:28.119Z,1.32
2018-11-28T06:02:27.374Z,1.33
2018-11-28T06:03:27.280Z,1.33
2018-11-28T06:04:27.281Z,1.35
2018-11-28T06:05:27.582Z,1.33
2018-11-28T06:06:27.467Z,1.37
2018-11-28T06:07:27.493Z,1.38
2018-11-28T06:08:27.301Z,1.48
2018-11-28T06:09:27.696Z,1.47
2018-11-28T06:10:27.364Z,1.54
2018-11-28T06:11:27.403Z,1.45
2018-11-28T06:12:27.321Z,1.48
2018-11-28T06:13:27.266Z,1.43
2018-11-28T06:14:27.437Z,1.48
2018-11-28T06:15:27.381Z,1.44
2018-11-28T06:16:27.283Z,1.44
2018-11-28T06:17:27.328Z,1.49
2018-11-28T06:18:27.449Z,1.49
2018-11-28T06:19:27.345Z,1.52
2018-11-28T06:20:27.467Z,1.33
2018-11-28T06:21:27.283Z,1.44
2018-11-28T06:22:27.324Z,1.43
2018-11-28T06:23:27.314Z,1.49
2018-11-28T06:24:27.372Z,1.4
2018-11-28T06:25:27.706Z,1.46
2018-11-28T06:26:27.320Z,1.49
2018-11-28T06:27:27.449Z,1.44
2018-11-28T06:28:27.419Z,1.48
2018-11-28T06:29:27.322Z,1.38
2018-11-28T06:30:27.489Z,1.39
2018-11-28T06:31:27.307Z,1.41
2018-11-28T06:32:27.417Z,1.5
2018-11-28T06:33:27.467Z,1.51
2018-11-28T06:34:27.392Z,1.45
2018-11-28T06:35:27.630Z,1.45
2018-11-28T06:36:27.531Z,1.49
2018-11-28T06:37:28.602Z,1.46
2018-11-28T06:38:27.243Z,1.39
2018-11-28T06:39:27.356Z,1.31
2018-11-28T06:40:27.360Z,1.31
2018-11-28T06:41:27.424Z,1.28
2018-11-28T06:42:27.337Z,1.36
2018-11-28T06:43:27.399Z,1.42
2018-11-28T06:44:27.361Z,1.38
2018-11-28T06:45:27.732Z,1.41
2018-11-28T06:46:27.331Z,1.38
2018-11-28T06:47:27.327Z,1.37
2018-11-28T06:48:27.388Z,1.4
2018-11-28T06:49:27.366Z,1.4
2018-11-28T06:50:27.307Z,1.34
2018-11-28T06:51:27.577Z,1.34
2018-11-28T06:52:27.226Z,1.42
2018-11-28T06:53:27.274Z,1.37
2018-11-28T06:54:27.354Z,1.37
2018-11-28T06:55:27.348Z,1.39
2018-11-28T06:56:27.365Z,1.26
2018-11-28T06:57:27.228Z,1.36
2018-11-28T06:58:27.251Z,1.4
2018-11-28T06:59:27.281Z,1.31
2018-11-28T07:00:27.184Z,1.37
2018-11-28T07:01:27.231Z,1.31
2018-11-28T07:02:27.214Z,1.36
2018-11-28T07:03:27.226Z,1.33
2018-11-28T07:04:28.257Z,1.24
2018-11-28T07:05:27.687Z,1.37
2018-11-28T07:06:27.241Z,1.36
2018-11-28T07:07:27.191Z,1.34
2018-11-28T07:08:27.247Z,1.31
2018-11-28T07:09:27.243Z,1.33
2018-11-28T07:10:27.307Z,1.29
2018-11-28T07:11:27.210Z,1.31
2018-11-28T07:12:27.322Z,1.26
2018-11-28T07:13:27.245Z,1.3
2018-11-28T07:14:27.327Z,1.33
2018-11-28T07:15:27.218Z,1.27
2018-11-28T07:16:27.362Z,1.27
2018-11-28T07:17:27.203Z,1.35
2018-11-28T07:18:27.221Z,1.35
2018-11-28T07:19:27.339Z,1.36
2018-11-28T07:20:27.244Z,1.34
2018-11-28T07:21:27.234Z,1.36
2018-11-28T07:22:27.316Z,1.38
2018-11-28T07:23:27.253Z,1.27
2018-11-28T07:24:27.417Z,1.3
2018-11-28T07:25:27.629Z,1.22
2018-11-28T07:26:27.255Z,1.32
2018-11-28T07:27:27.270Z,1.34
2018-11-28T07:28:27.737Z,1.24
2018-11-28T07:29:27.249Z,1.32
2018-11-28T07:30:27.326Z,1.25
2018-11-28T07:31:27.298Z,1.23
2018-11-28T07:32:27.278Z,1.37
2018-11-28T07:33:27.312Z,1.28
2018-11-28T07:34:27.203Z,1.31
2018-11-28T07:35:27.599Z,1.34
2018-11-28T07:36:27.364Z,1.38
2018-11-28T07:37:27.227Z,1.33
2018-11-28T07:38:27.581Z,1.24
2018-11-28T07:39:27.542Z,1.23
2018-11-28T07:40:27.263Z,1.35
2018-11-28T07:41:27.230Z,1.37
2018-11-28T07:42:27.208Z,1.27
2018-11-28T07:43:27.177Z,1.38
2018-11-28T07:44:27.267Z,1.41
2018-11-28T07:45:27.308Z,1.37
2018-11-28T07:46:28.253Z,1.4
2018-11-28T07:47:28.077Z,1.39
2018-11-28T07:48:27.182Z,1.32
2018-11-28T07:49:27.373Z,1.29
2018-11-28T07:50:27.142Z,1.36
2018-11-28T07:51:27.184Z,1.35
2018-11-28T07:52:27.255Z,1.26
2018-11-28T07:53:27.143Z,1.29
2018-11-28T07:54:27.154Z,1.27
2018-11-28T07:55:27.719Z,1.33
2018-11-28T07:56:27.163Z,1.28
2018-11-28T07:57:27.139Z,1.31
2018-11-28T07:58:27.180Z,1.3
2018-11-28T07:59:27.152Z,1.32
2018-11-28T08:00:27.242Z,1.27
2018-11-28T08:01:27.223Z,1.32
2018-11-28T08:02:27.257Z,1.3
2018-11-28T08:03:27.164Z,1.29
2018-11-28T08:04:27.377Z,1.32
2018-11-28T08:05:27.476Z,1.34
2018-11-28T08:06:27.628Z,1.3
2018-11-28T08:07:27.123Z,1.34
2018-11-28T08:08:27.132Z,1.35
2018-11-28T08:09:27.322Z,1.35
2018-11-28T08:10:27.489Z,1.34
2018-11-28T08:11:27.271Z,1.32
2018-11-28T08:12:27.191Z,1.32
2018-11-28T08:13:27.232Z,1.32
2018-11-28T08:14:27.295Z,1.33
2018-11-28T08:15:27.218Z,1.34
2018-11-28T08:16:27.101Z,1.31
2018-11-28T08:17:27.520Z,1.32
2018-11-28T08:18:27.150Z,1.34
2018-11-28T08:19:27.111Z,1.31
2018-11-28T08:20:27.300Z,1.34
2018-11-28T08:21:27.310Z,1.33
2018-11-28T08:22:27.580Z,1.29
2018-11-28T08:23:28.388Z,1.32
2018-11-28T08:24:27.234Z,1.32
2018-11-28T08:25:28.335Z,1.3
2018-11-28T08:26:27.566Z,1.33
2018-11-28T08:27:27.120Z,1.34
2018-11-28T08:28:27.246Z,1.41
2018-11-28T08:29:27.135Z,1.4
2018-11-28T08:30:27.179Z,1.33
2018-11-28T08:31:27.167Z,1.35
2018-11-28T08:32:27.201Z,1.36
2018-11-28T08:33:27.520Z,1.36
2018-11-28T08:34:27.326Z,1.36
2018-11-28T08:35:27.110Z,1.35
2018-11-28T08:36:27.150Z,1.4
2018-11-28T08:37:27.272Z,1.35
2018-11-28T08:38:27.142Z,1.34
2018-11-28T08:39:27.069Z,1.37
2018-11-28T08:40:27.288Z,1.41
2018-11-28T08:41:27.082Z,1.36
2018-11-28T08:42:27.193Z,1.33
2018-11-28T08:43:27.145Z,1.38
2018-11-28T08:44:27.105Z,1.32
2018-11-28T08:45:27.121Z,1.33
2018-11-28T08:46:27.224Z,1.34
2018-11-28T08:47:27.342Z,1.37
2018-11-28T08:48:27.075Z,1.42
2018-11-28T08:49:27.098Z,1.39
2018-11-28T08:50:27.041Z,1.36
2018-11-28T08:51:27.356Z,1.37
2018-11-28T08:52:27.113Z,1.39
2018-11-28T08:53:27.199Z,1.38
2018-11-28T08:54:27.056Z,1.35
2018-11-28T08:55:27.112Z,1.39
2018-11-28T08:56:27.118Z,1.39
2018-11-28T08:57:27.038Z,1.38
2018-11-28T08:58:27.235Z,1.34
2018-11-28T08:59:27.143Z,1.38
2018-11-28T09:00:27.194Z,1.39
2018-11-28T09:01:27.305Z,1.4
2018-11-28T09:02:27.211Z,1.43
2018-11-28T09:03:27.205Z,1.47
2018-11-28T09:04:27.412Z,1.49
2018-11-28T09:05:27.095Z,1.44
2018-11-28T09:06:27.100Z,1.43
2018-11-28T09:07:27.304Z,1.43
2018-11-28T09:08:27.082Z,1.38
2018-11-28T09:09:27.071Z,1.46
2018-11-28T09:10:27.436Z,1.49
2018-11-28T09:11:27.138Z,1.52
2018-11-28T09:12:27.168Z,1.51
2018-11-28T09:13:27.397Z,1.48
2018-11-28T09:14:27.425Z,1.52
2018-11-28T09:15:27.268Z,1.55
2018-11-28T09:16:27.063Z,1.59
2018-11-28T09:17:27.071Z,1.63
2018-11-28T09:18:27.032Z,1.57
2018-11-28T09:19:27.041Z,1.55
2018-11-28T09:20:27.350Z,1.55
2018-11-28T09:21:27.129Z,1.6
2018-11-28T09:22:27.092Z,1.64
2018-11-28T09:23:27.197Z,1.65
2018-11-28T09:24:27.059Z,1.67
2018-11-28T09:25:27.065Z,1.65
2018-11-28T09:26:27.055Z,1.63
2018-11-28T09:27:27.016Z,1.63
2018-11-28T09:28:27.043Z,1.62
2018-11-28T09:29:27.189Z,1.6
2018-11-28T09:30:27.078Z,1.62
2018-11-28T09:31:27.176Z,1.64
2018-11-28T09:32:27.097Z,1.7
2018-11-28T09:33:27.285Z,1.69
2018-11-28T09:34:27.183Z,1.69
2018-11-28T09:35:27.206Z,1.66
2018-11-28T09:36:27.085Z,1.74
2018-11-28T09:37:27.083Z,1.71
2018-11-28T09:38:27.067Z,1.69
2018-11-28T09:39:27.395Z,1.74
2018-11-28T09:40:27.130Z,1.74
2018-11-28T09:41:26.993Z,1.75
2018-11-28T09:42:27.139Z,1.72
2018-11-28T09:43:27.051Z,1.74
2018-11-28T09:44:27.138Z,1.78
2018-11-28T09:45:27.071Z,1.75
2018-11-28T09:46:27.059Z,1.76
2018-11-28T09:47:27.035Z,1.79
2018-11-28T09:48:27.064Z,1.8
2018-11-28T09:49:27.350Z,1.78
2018-11-28T09:50:27.119Z,1.84
2018-11-28T09:51:27.030Z,1.86
2018-11-28T09:52:27.070Z,1.96
2018-11-28T09:53:27.141Z,1.95
2018-11-28T09:54:27.166Z,1.93
2018-11-28T09:55:27.170Z,1.89
2018-11-28T09:56:27.854Z,2.12
2018-11-28T09:57:27.056Z,2.11
2018-11-28T09:58:26.972Z,2.06
2018-11-28T09:59:27.188Z,1.98
2018-11-28T10:00:27.224Z,1.97
2018-11-28T10:01:26.998Z,1.94
2018-11-28T10:02:27.070Z,2.12
2018-11-28T10:03:27.254Z,2.18
2018-11-28T10:04:26.971Z,2.25
2018-11-28T10:05:27.165Z,2.04
2018-11-28T10:06:27.060Z,2.15
2018-11-28T10:07:27.134Z,2.06
2018-11-28T10:08:27.125Z,2.07
2018-11-28T10:09:27.092Z,2.02
2018-11-28T10:10:27.129Z,2.02
2018-11-28T10:11:27.197Z,1.99
2018-11-28T10:12:27.115Z,2.03
2018-11-28T10:13:27.223Z,2.07
2018-11-28T10:14:26.973Z,1.99
2018-11-28T10:15:27.062Z,2.05
2018-11-28T10:16:27.094Z,1.99
2018-11-28T10:17:27.077Z,2.08
2018-11-28T10:18:26.978Z,2.1
2018-11-28T10:19:27.253Z,2.07
2018-11-28T10:20:27.113Z,2.09
2018-11-28T10:21:27.342Z,2.11
2018-11-28T10:22:27.028Z,2.13
2018-11-28T10:23:27.077Z,2.15
2018-11-28T10:24:27.186Z,2.19
2018-11-28T10:25:27.338Z,2.18
2018-11-28T10:26:27.006Z,2.15
2018-11-28T10:27:27.091Z,2.13
2018-11-28T10:28:27.101Z,2.17
2018-11-28T10:29:27.042Z,2.2
2018-11-28T10:30:27.229Z,2.21
2018-11-28T10:31:27.137Z,2.27
2018-11-28T10:32:26.936Z,2.28
2018-11-28T10:33:27.020Z,2.27
2018-11-28T10:34:29.816Z,2.29
2018-11-28T10:35:27.028Z,2.28
2018-11-28T10:36:27.211Z,2.29
2018-11-28T10:37:27.024Z,2.35
2018-11-28T10:38:27.171Z,2.35
2018-11-28T10:39:26.976Z,2.33
2018-11-28T10:40:26.943Z,2.3
2018-11-28T10:41:27.054Z,2.31
2018-11-28T10:42:27.049Z,2.34
2018-11-28T10:43:27.084Z,2.33
2018-11-28T10:44:27.075Z,2.36
2018-11-28T10:45:27.049Z,2.41
2018-11-28T10:46:27.865Z,2.41
2018-11-28T10:47:26.944Z,2.44
2018-11-28T10:48:27.088Z,2.46
2018-11-28T10:49:26.942Z,2.44
2018-11-28T10:50:27.020Z,2.44
2018-11-28T10:51:27.199Z,2.55
2018-11-28T10:52:27.118Z,2.55
2018-11-28T10:53:27.000Z,2.56
2018-11-28T10:54:27.302Z,2.55
2018-11-28T10:55:26.955Z,2.57
2018-11-28T10:56:27.191Z,2.56
2018-11-28T10:57:27.166Z,2.57
2018-11-28T10:58:27.806Z,2.61
2018-11-28T10:59:27.155Z,2.6
2018-11-28T11:00:26.873Z,2.66
2018-11-28T11:01:27.293Z,2.61
2018-11-28T11:02:26.998Z,2.64
2018-11-28T11:03:26.900Z,2.65
2018-11-28T11:04:27.373Z,2.7
2018-11-28T11:05:27.200Z,2.68
2018-11-28T11:06:27.270Z,2.66
2018-11-28T11:07:27.032Z,2.66
2018-11-28T11:08:27.149Z,2.69
2018-11-28T11:09:27.289Z,2.71
2018-11-28T11:10:26.967Z,2.71
2018-11-28T11:11:27.024Z,2.76
2018-11-28T11:12:27.100Z,2.81
2018-11-28T11:13:26.862Z,2.7
2018-11-28T11:14:27.030Z,2.81
2018-11-28T11:15:27.072Z,2.83
2018-11-28T11:16:27.072Z,2.8
2018-11-28T11:17:27.103Z,2.82
2018-11-28T11:18:28.011Z,2.89
2018-11-28T11:19:26.877Z,2.91
2018-11-28T11:20:26.870Z,2.91
2018-11-28T11:21:27.183Z,3.04
2018-11-28T11:22:27.056Z,3.02
2018-11-28T11:23:27.270Z,3.02
2018-11-28T11:24:27.110Z,3.04
2018-11-28T11:25:26.876Z,3.13
2018-11-28T11:26:27.336Z,3.13
2018-11-28T11:27:27.039Z,3.08
2018-11-28T11:28:27.308Z,3.16
2018-11-28T11:29:27.178Z,3.09
2018-11-28T11:30:26.870Z,3.04
2018-11-28T11:31:26.851Z,3.07
2018-11-28T11:32:26.967Z,3.06
2018-11-28T11:33:27.138Z,3.11
2018-11-28T11:34:27.165Z,3.05
2018-11-28T11:35:26.911Z,3.15
2018-11-28T11:36:26.963Z,3.11
2018-11-28T11:37:26.867Z,3.12
2018-11-28T11:38:27.091Z,3.17
2018-11-28T11:39:26.923Z,3.08
2018-11-28T11:40:26.858Z,3.02
2018-11-28T11:41:27.232Z,3.12
2018-11-28T11:42:26.841Z,3.16
2018-11-28T11:43:26.881Z,3.09
2018-11-28T11:44:26.844Z,3.06
2018-11-28T11:45:26.865Z,3.05
2018-11-28T11:46:26.820Z,3.14
2018-11-28T11:47:27.354Z,3.15
2018-11-28T11:48:26.832Z,3.17
2018-11-28T11:49:28.122Z,3.16
2018-11-28T11:50:26.813Z,2.99
2018-11-28T11:51:26.876Z,3.05
2018-11-28T11:52:27.765Z,3.07
2018-11-28T11:53:27.279Z,3.09
2018-11-28T11:54:26.843Z,3.07
2018-11-28T11:55:27.199Z,3.07
2018-11-28T11:56:27.629Z,3.11
2018-11-28T11:57:26.850Z,3.15
2018-11-28T11:58:27.215Z,3.15
2018-11-28T11:59:26.896Z,3.15
2018-11-28T12:00:26.868Z,3.14
2018-11-28T12:01:26.875Z,3.14
2018-11-28T12:02:26.878Z,3.14
2018-11-28T12:03:26.927Z,3.17
2018-11-28T12:04:26.828Z,3.15
2018-11-28T12:05:26.837Z,3.15
2018-11-28T12:06:26.810Z,3.06
2018-11-28T12:07:26.856Z,3.06
2018-11-28T12:08:27.044Z,3.15
2018-11-28T12:09:26.855Z,3.13
2018-11-28T12:10:26.876Z,3.12
2018-11-28T12:11:26.926Z,3.11
2018-11-28T12:12:28.523Z,3.18
2018-11-28T12:13:26.848Z,3.22
2018-11-28T12:14:26.899Z,3.15
2018-11-28T12:15:26.784Z,3.15
2018-11-28T12:16:26.847Z,3.16
2018-11-28T12:17:27.658Z,3.15
2018-11-28T12:18:26.860Z,3.15
2018-11-28T12:19:26.810Z,3.23
2018-11-28T12:20:26.864Z,3.26
2018-11-28T12:21:26.802Z,3.25
2018-11-28T12:22:26.825Z,3.27
2018-11-28T12:23:26.845Z,3.24
2018-11-28T12:24:27.013Z,3.18
2018-11-28T12:25:26.861Z,3.25
2018-11-28T12:26:27.014Z,3.24
2018-11-28T12:27:27.424Z,3.24
2018-11-28T12:28:26.901Z,3.21
2018-11-28T12:29:26.796Z,3.25
2018-11-28T12:30:27.143Z,3.25
2018-11-28T12:31:29.685Z,3.21
2018-11-28T12:32:26.859Z,3.24
2018-11-28T12:33:26.788Z,3.25
2018-11-28T12:34:26.855Z,3.28
2018-11-28T12:35:27.371Z,3.26
2018-11-28T12:36:26.907Z,3.34
2018-11-28T12:37:27.020Z,3.3
2018-11-28T12:38:27.226Z,3.31
2018-11-28T12:39:27.078Z,3.4
2018-11-28T12:40:26.798Z,3.36
2018-11-28T12:41:27.046Z,3.37
2018-11-28T12:42:26.950Z,3.34
2018-11-28T12:43:26.998Z,3.37
2018-11-28T12:44:26.944Z,3.44
2018-11-28T12:45:26.769Z,3.39
2018-11-28T12:46:26.809Z,3.43
2018-11-28T12:47:27.065Z,3.39
2018-11-28T12:48:26.904Z,3.44
2018-11-28T12:49:26.805Z,3.36
2018-11-28T12:50:27.189Z,3.42
2018-11-28T12:51:27.049Z,3.41
2018-11-28T12:52:26.896Z,3.45
2018-11-28T12:53:26.785Z,3.36
2018-11-28T12:54:27.052Z,3.38
2018-11-28T12:55:26.799Z,3.39
2018-11-28T12:56:26.928Z,3.36
2018-11-28T12:57:27.140Z,3.39
2018-11-28T12:58:26.750Z,3.36
2018-11-28T12:59:27.108Z,3.43
2018-11-28T13:00:26.784Z,3.41
2018-11-28T13:01:26.753Z,3.42
2018-11-28T13:02:26.814Z,3.34
2018-11-28T13:03:26.827Z,3.37
2018-11-28T13:04:26.891Z,3.37
2018-11-28T13:05:26.919Z,3.38
2018-11-28T13:06:27.006Z,3.44
2018-11-28T13:07:27.632Z,3.4
2018-11-28T13:08:26.714Z,3.35
2018-11-28T13:09:26.763Z,3.38
2018-11-28T13:10:26.728Z,3.35
2018-11-28T13:11:26.686Z,3.36
2018-11-28T13:12:26.725Z,3.39
2018-11-28T13:13:26.685Z,3.38
2018-11-28T13:14:26.866Z,3.43
2018-11-28T13:15:26.778Z,3.38
2018-11-28T13:16:26.836Z,3.39
2018-11-28T13:17:26.777Z,3.39
2018-11-28T13:18:26.953Z,3.44
2018-11-28T13:19:26.976Z,3.4
2018-11-28T13:20:26.693Z,3.39